Terminal Aerodrome Forecast
Issued by NWS

Home | Current Version | Previous Version | Text Only | Print | Product List | Glossary On
Versions: 1 2 3 4 5 6 7 8 9 10
249
FTUS44 KLIX 071120
TAFMSY
TAF
KMSY 071120Z 0712/0812 35004KT P6SM FEW250
     FM072100 29005KT P6SM FEW250=

USA.gov is the U.S. government's official web portal to all federal, state and local government web resources and services.